Zelenogorsk, Russia
Current Conditions -  °F | °C
As of 1:30 PM on Friday 31 Oct 2014 (Local Time) from ULLI Reporting Station
Overcast Overcast  
Wind Chill: 34°   Ceiling: 3100
Heat Index: 41°   Visibility: 6mi
Dew Point: 37°   Wind: 11mph
Humidity: 87%   Direction: 300°WNW
Pressure: 30.09"   Gusts: NA
Location:  60.22°N, 29.72°E
Report Text: ULLI 311030Z 30005MPS 9999 OVC031 05/03 Q1019 88190060 NOSIG
Loading
Personal Weather Stations






























Interactive Weather Map
Tropical Storm Tracking
New forecast layout! Learn more

10-Day Weather Forecast

Advertisements
Track Severe Weather on mobile